Time;durP1;ratioP1;P1;durP2;ratioP2;P2;SDS_P1;SDS_P2;PMS_P1;PMS_P2;Temp;Humidity;BMP_temperature;BMP_pressure;BME280_temperature;BME280_humidity;BME280_pressure;Samples;Min_cycle;Max_cycle;Signal;HPM_P1;HPM_P2
2023/08/22 00:01:59;;;;;;;;;;;;;;;;;;6345812;28;20104;-78
2023/08/22 00:05:01;;;;;;;;;;;;;;;;;;6343752;28;20214;-78
2023/08/22 00:08:05;;;;;;;;;;;;;;;;;;6341912;28;19940;-78
2023/08/22 00:11:06;;;;;;;;;;;;;;;;;;6341901;28;20107;-78
2023/08/22 00:14:07;;;;;;;;;;;;;;;;;;6346275;28;20310;-79
2023/08/22 00:17:10;;;;;;;;;;;;;;;;;;6342532;28;19985;-79
2023/08/22 00:20:12;;;;;;;;;;;;;;;;;;6342068;28;19928;-79
2023/08/22 00:23:13;;;;;;;;;;;;;;;;;;6343332;28;19923;-79
2023/08/22 00:26:15;;;;;;;;;;;;;;;;;;6350160;28;19923;-79
2023/08/22 00:29:16;;;;;;;;;;;;;;;;;;6341905;28;20208;-78
2023/08/22 00:32:17;;;;;;;;;;;;;;;;;;6344654;28;19931;-78
2023/08/22 00:35:18;;;;;;;;;;;;;;;;;;6343074;28;20215;-79
2023/08/22 00:38:20;;;;;;;;;;;;;;;;;;6343993;28;19935;-79
2023/08/22 00:41:21;;;;;;;;;;;;;;;;;;6347178;28;19920;-79
2023/08/22 00:44:22;;;;;;;;;;;;;;;;;;6345187;28;19928;-79
2023/08/22 00:47:23;;;;;;;;;;;;;;;;;;6344836;28;19932;-78
2023/08/22 00:50:25;;;;;;;;;;;;;;;;;;6340353;28;19927;-79
2023/08/22 00:53:26;;;;;;;;;;;;;;;;;;6344453;28;19935;-78
2023/08/22 00:56:28;;;;;;;;;;;;;;;;;;6344123;28;19965;-79
2023/08/22 00:59:29;;;;;;;;;;;;;;;;;;6347172;28;20103;-79
2023/08/22 01:02:30;;;;;;;;;;;;;;;;;;6344079;28;20015;-79
2023/08/22 01:05:32;;;;;;;;;;;;;;;;;;6343667;28;19928;-78
2023/08/22 01:08:34;;;;;;;;;;;;;;;;;;6344591;28;20230;-78
2023/08/22 01:11:36;;;;;;;;;;;;;;;;;;6344815;28;19958;-79
2023/08/22 01:14:37;;;;;;;;;;;;;;;;;;6337199;28;19927;-78
2023/08/22 01:17:38;;;;;;;;;;;;;;;;;;6351261;28;19928;-78
2023/08/22 01:20:40;;;;;;;;;;;;;;;;;;6348237;28;19958;-78
2023/08/22 01:23:41;;;;;;;;;;;;;;;;;;6349731;28;19927;-79
2023/08/22 01:26:43;;;;;;;;;;;;;;;;;;6347424;28;19927;-78
2023/08/22 01:29:44;;;;;;;;;;;;;;;;;;6344850;28;19920;-78
2023/08/22 01:32:45;;;;;;;;;;;;;;;;;;6352638;28;20460;-78
2023/08/22 01:35:47;;;;;;;;;;;;;;;;;;6349371;28;19920;-79
2023/08/22 01:38:48;;;;;;;;;;;;;;;;;;6350179;28;19928;-78
2023/08/22 01:41:49;;;;;;;;;;;;;;;;;;6348468;28;19942;-78
2023/08/22 01:44:51;;;;;;;;;;;;;;;;;;6349858;28;20192;-78
2023/08/22 01:47:52;;;;;;;;;;;;;;;;;;6347629;28;19929;-78
2023/08/22 01:50:53;;;;;;;;;;;;;;;;;;6353497;27;20220;-79
2023/08/22 01:53:54;;;;;;;;;;;;;;;;;;6349072;28;19926;-79
2023/08/22 01:56:56;;;;;;;;;;;;;;;;;;6346723;28;19928;-79
2023/08/22 01:59:58;;;;;;;;;;;;;;;;;;6342379;28;19963;-79
2023/08/22 02:02:59;;;;;;;;;;;;;;;;;;6353666;28;19991;-78
2023/08/22 02:06:00;;;;;;;;;;;;;;;;;;6349603;28;19932;-79
2023/08/22 02:09:01;;;;;;;;;;;;;;;;;;6347586;28;20200;-78
2023/08/22 02:12:03;;;;;;;;;;;;;;;;;;6346290;27;20419;-79
2023/08/22 02:15:04;;;;;;;;;;;;;;;;;;6348563;28;19935;-79
2023/08/22 02:18:05;;;;;;;;;;;;;;;;;;6350622;28;19938;-79
2023/08/22 02:21:06;;;;;;;;;;;;;;;;;;6357147;28;19942;-79
2023/08/22 02:24:08;;;;;;;;;;;;;;;;;;6356410;28;19943;-79
2023/08/22 02:27:09;;;;;;;;;;;;;;;;;;6354747;28;19963;-78
2023/08/22 02:30:10;;;;;;;;;;;;;;;;;;6355577;27;20139;-79
2023/08/22 02:33:12;;;;;;;;;;;;;;;;;;6355808;27;19927;-78
2023/08/22 02:36:13;;;;;;;;;;;;;;;;;;6355292;28;19943;-79
2023/08/22 02:39:14;;;;;;;;;;;;;;;;;;6356755;28;20506;-78
2023/08/22 02:42:15;;;;;;;;;;;;;;;;;;6357628;28;19927;-78
2023/08/22 02:45:17;;;;;;;;;;;;;;;;;;6356955;28;19936;-78
2023/08/22 02:48:18;;;;;;;;;;;;;;;;;;6356816;28;19927;-79
2023/08/22 02:51:19;;;;;;;;;;;;;;;;;;6350933;28;19935;-78
2023/08/22 02:54:20;;;;;;;;;;;;;;;;;;6345061;28;19920;-78
2023/08/22 02:57:21;;;;;;;;;;;;;;;;;;6343890;28;19931;-78
2023/08/22 03:00:23;;;;;;;;;;;;;;;;;;6344919;28;19924;-79
2023/08/22 03:03:24;;;;;;;;;;;;;;;;;;6344372;28;19936;-79
2023/08/22 03:06:25;;;;;;;;;;;;;;;;;;6345579;28;19928;-79
2023/08/22 03:09:28;;;;;;;;;;;;;;;;;;6349693;28;19928;-78
2023/08/22 03:12:30;;;;;;;;;;;;;;;;;;6348126;28;19927;-79
2023/08/22 03:15:31;;;;;;;;;;;;;;;;;;6345523;28;19919;-79
2023/08/22 03:18:32;;;;;;;;;;;;;;;;;;6346165;28;19939;-79
2023/08/22 03:21:33;;;;;;;;;;;;;;;;;;6346222;28;19927;-79
2023/08/22 03:24:34;;;;;;;;;;;;;;;;;;6347059;28;20112;-79
2023/08/22 03:27:36;;;;;;;;;;;;;;;;;;6346036;28;19935;-78
2023/08/22 03:30:37;;;;;;;;;;;;;;;;;;6346206;28;19966;-78
2023/08/22 03:33:38;;;;;;;;;;;;;;;;;;6348237;28;20216;-79
2023/08/22 03:36:39;;;;;;;;;;;;;;;;;;6347423;28;19927;-79
2023/08/22 03:39:41;;;;;;;;;;;;;;;;;;6344857;28;19932;-79
2023/08/22 03:42:42;;;;;;;;;;;;;;;;;;6346014;28;19920;-78
2023/08/22 03:45:43;;;;;;;;;;;;;;;;;;6345222;28;19927;-78
2023/08/22 03:48:45;;;;;;;;;;;;;;;;;;6346869;28;19927;-79
2023/08/22 03:51:46;;;;;;;;;;;;;;;;;;6345113;28;20250;-78
2023/08/22 03:54:47;;;;;;;;;;;;;;;;;;6345962;28;19951;-78
2023/08/22 03:57:48;;;;;;;;;;;;;;;;;;6345203;28;20217;-78
2023/08/22 04:00:50;;;;;;;;;;;;;;;;;;6343130;28;19928;-78
2023/08/22 04:03:51;;;;;;;;;;;;;;;;;;6346138;28;19928;-79
2023/08/22 04:06:52;;;;;;;;;;;;;;;;;;6343716;28;19927;-78
2023/08/22 04:09:53;;;;;;;;;;;;;;;;;;6347464;28;19920;-78
2023/08/22 04:12:54;;;;;;;;;;;;;;;;;;6343888;28;19935;-78
2023/08/22 04:15:56;;;;;;;;;;;;;;;;;;6342429;28;19931;-79
2023/08/22 04:18:57;;;;;;;;;;;;;;;;;;6340934;28;20220;-79
2023/08/22 04:21:58;;;;;;;;;;;;;;;;;;6343942;28;19927;-79
2023/08/22 04:24:59;;;;;;;;;;;;;;;;;;6347975;28;19942;-78
2023/08/22 04:28:01;;;;;;;;;;;;;;;;;;6343971;28;19934;-78
2023/08/22 04:31:02;;;;;;;;;;;;;;;;;;6343578;28;19942;-78
2023/08/22 04:34:03;;;;;;;;;;;;;;;;;;6344290;28;20207;-78
2023/08/22 04:37:04;;;;;;;;;;;;;;;;;;6342578;28;19990;-78
2023/08/22 04:40:06;;;;;;;;;;;;;;;;;;6342338;28;19923;-79
2023/08/22 04:43:07;;;;;;;;;;;;;;;;;;6344550;28;19934;-78
2023/08/22 04:46:08;;;;;;;;;;;;;;;;;;6345765;28;19927;-79
2023/08/22 04:49:09;;;;;;;;;;;;;;;;;;6344678;28;20196;-78
2023/08/22 04:52:10;;;;;;;;;;;;;;;;;;6352023;28;19920;-79
2023/08/22 04:55:12;;;;;;;;;;;;;;;;;;6349535;28;19920;-79
2023/08/22 04:58:13;;;;;;;;;;;;;;;;;;6350523;28;20224;-79
2023/08/22 05:01:14;;;;;;;;;;;;;;;;;;6351343;28;19928;-78
2023/08/22 05:04:15;;;;;;;;;;;;;;;;;;6347413;28;20242;-78
2023/08/22 05:07:17;;;;;;;;;;;;;;;;;;6348528;27;19924;-78
2023/08/22 05:10:18;;;;;;;;;;;;;;;;;;6350813;27;19927;-79
2023/08/22 05:13:19;;;;;;;;;;;;;;;;;;6350967;27;19934;-79
2023/08/22 05:16:20;;;;;;;;;;;;;;;;;;6349466;28;19928;-79
2023/08/22 05:19:22;;;;;;;;;;;;;;;;;;6347697;28;20223;-78
2023/08/22 05:22:23;;;;;;;;;;;;;;;;;;6349671;28;19935;-78
2023/08/22 05:25:24;;;;;;;;;;;;;;;;;;6349849;28;19934;-78
2023/08/22 05:28:25;;;;;;;;;;;;;;;;;;6347470;28;20212;-79
2023/08/22 05:31:27;;;;;;;;;;;;;;;;;;6349174;28;19933;-78
2023/08/22 05:34:28;;;;;;;;;;;;;;;;;;6345113;28;19987;-78
2023/08/22 05:37:29;;;;;;;;;;;;;;;;;;6346645;28;19932;-78
2023/08/22 05:40:31;;;;;;;;;;;;;;;;;;6348705;28;19919;-78
2023/08/22 05:43:32;;;;;;;;;;;;;;;;;;6347590;28;19920;-78
2023/08/22 05:46:33;;;;;;;;;;;;;;;;;;6345081;28;19927;-78
2023/08/22 05:49:34;;;;;;;;;;;;;;;;;;6353417;27;20216;-78
2023/08/22 05:52:36;;;;;;;;;;;;;;;;;;6349686;28;20212;-79
2023/08/22 05:55:37;;;;;;;;;;;;;;;;;;6347756;28;19928;-77
2023/08/22 05:58:38;;;;;;;;;;;;;;;;;;6346463;28;19966;-77
2023/08/22 06:01:39;;;;;;;;;;;;;;;;;;6346707;27;20004;-77
2023/08/22 06:04:40;;;;;;;;;;;;;;;;;;6348855;27;20222;-77
2023/08/22 06:07:42;;;;;;;;;;;;;;;;;;6349349;27;20094;-77
2023/08/22 06:10:43;;;;;;;;;;;;;;;;;;6348310;28;19924;-77
2023/08/22 06:13:44;;;;;;;;;;;;;;;;;;6349155;28;20213;-77
2023/08/22 06:16:45;;;;;;;;;;;;;;;;;;6345876;28;19920;-77
2023/08/22 06:19:46;;;;;;;;;;;;;;;;;;6347092;28;19932;-77
2023/08/22 06:22:48;;;;;;;;;;;;;;;;;;6348913;28;20073;-77
2023/08/22 06:25:49;;;;;;;;;;;;;;;;;;6347042;28;19936;-77
2023/08/22 06:28:51;;;;;;;;;;;;;;;;;;6347230;28;19979;-77
2023/08/22 06:31:53;;;;;;;;;;;;;;;;;;6345044;28;19920;-77
2023/08/22 06:34:54;;;;;;;;;;;;;;;;;;6344853;28;19932;-77
2023/08/22 06:37:55;;;;;;;;;;;;;;;;;;6345697;28;19920;-77
2023/08/22 06:40:56;;;;;;;;;;;;;;;;;;6345261;28;20266;-77
2023/08/22 06:43:58;;;;;;;;;;;;;;;;;;6345904;28;19927;-78
2023/08/22 06:46:59;;;;;;;;;;;;;;;;;;6346233;28;20103;-76
2023/08/22 06:50:00;;;;;;;;;;;;;;;;;;6348937;28;19961;-78
2023/08/22 06:53:01;;;;;;;;;;;;;;;;;;6345449;27;20001;-77
2023/08/22 06:56:03;;;;;;;;;;;;;;;;;;6345127;28;19928;-77
2023/08/22 06:59:04;;;;;;;;;;;;;;;;;;6346311;28;19995;-77
2023/08/22 07:02:05;;;;;;;;;;;;;;;;;;6345260;28;20231;-77
2023/08/22 07:05:07;;;;;;;;;;;;;;;;;;6343097;28;20010;-77
2023/08/22 07:08:08;;;;;;;;;;;;;;;;;;6345593;28;20279;-77
2023/08/22 07:11:09;;;;;;;;;;;;;;;;;;6348939;28;20107;-77
2023/08/22 07:14:10;;;;;;;;;;;;;;;;;;6345581;28;19935;-76
2023/08/22 07:17:12;;;;;;;;;;;;;;;;;;6345099;28;19928;-77
2023/08/22 07:20:13;;;;;;;;;;;;;;;;;;6346065;28;19928;-77
2023/08/22 07:23:14;;;;;;;;;;;;;;;;;;6346654;28;19934;-77
2023/08/22 07:26:15;;;;;;;;;;;;;;;;;;6344969;28;19943;-77
2023/08/22 07:29:17;;;;;;;;;;;;;;;;;;6342544;28;19932;-77
2023/08/22 07:32:20;;;;;;;;;;;;;;;;;;6347173;28;20108;-78
2023/08/22 07:35:21;;;;;;;;;;;;;;;;;;6344064;28;19928;-77
2023/08/22 07:38:23;;;;;;;;;;;;;;;;;;6343267;28;19935;-77
2023/08/22 07:41:24;;;;;;;;;;;;;;;;;;6346733;28;19919;-77
2023/08/22 07:44:25;;;;;;;;;;;;;;;;;;6346566;28;19928;-77
2023/08/22 07:47:26;;;;;;;;;;;;;;;;;;6344841;27;19928;-77
2023/08/22 07:50:28;;;;;;;;;;;;;;;;;;6346462;28;19935;-77
2023/08/22 07:53:30;;;;;;;;;;;;;;;;;;6345711;28;19973;-77
2023/08/22 07:56:33;;;;;;;;;;;;;;;;;;6345583;28;20113;-77
2023/08/22 07:59:35;;;;;;;;;;;;;;;;;;6342841;28;19954;-77
2023/08/22 08:02:36;;;;;;;;;;;;;;;;;;6341649;28;19928;-77
2023/08/22 08:05:37;;;;;;;;;;;;;;;;;;6345869;28;19978;-77
2023/08/22 08:08:38;;;;;;;;;;;;;;;;;;6347562;28;19972;-78
2023/08/22 08:11:40;;;;;;;;;;;;;;;;;;6343568;28;19920;-77
2023/08/22 08:14:41;;;;;;;;;;;;;;;;;;6343181;28;19924;-77
2023/08/22 08:17:42;;;;;;;;;;;;;;;;;;6344528;28;19927;-77
2023/08/22 08:20:44;;;;;;;;;;;;;;;;;;6343477;28;19996;-77
2023/08/22 08:23:45;;;;;;;;;;;;;;;;;;6348324;28;19972;-77
2023/08/22 08:26:46;;;;;;;;;;;;;;;;;;6346845;28;19932;-77
2023/08/22 08:29:47;;;;;;;;;;;;;;;;;;6341733;28;20227;-77
2023/08/22 08:32:49;;;;;;;;;;;;;;;;;;6345427;28;19969;-77
2023/08/22 08:35:50;;;;;;;;;;;;;;;;;;6342349;28;19920;-77
2023/08/22 08:38:51;;;;;;;;;;;;;;;;;;6341266;28;20407;-79
2023/08/22 08:41:52;;;;;;;;;;;;;;;;;;6344206;28;19961;-76
2023/08/22 08:44:54;;;;;;;;;;;;;;;;;;6342751;28;19920;-76
2023/08/22 08:47:55;;;;;;;;;;;;;;;;;;6343050;28;19927;-79
2023/08/22 08:50:56;;;;;;;;;;;;;;;;;;6345693;28;19936;-77
2023/08/22 08:53:57;;;;;;;;;;;;;;;;;;6343506;28;19919;-77
2023/08/22 08:56:59;;;;;;;;;;;;;;;;;;6343630;28;19931;-77
2023/08/22 09:00:00;;;;;;;;;;;;;;;;;;6344839;28;20204;-78
2023/08/22 09:03:01;;;;;;;;;;;;;;;;;;6346534;28;20013;-77
2023/08/22 09:06:02;;;;;;;;;;;;;;;;;;6341186;28;19928;-77
2023/08/22 09:09:05;;;;;;;;;;;;;;;;;;6345019;28;19919;-77
2023/08/22 09:12:06;;;;;;;;;;;;;;;;;;6340729;28;19939;-77
2023/08/22 09:15:08;;;;;;;;;;;;;;;;;;6344033;28;19920;-77
2023/08/22 09:18:09;;;;;;;;;;;;;;;;;;6344065;28;19934;-77
2023/08/22 09:21:11;;;;;;;;;;;;;;;;;;6345636;28;19928;-77
2023/08/22 09:24:12;;;;;;;;;;;;;;;;;;6343158;28;19928;-77
2023/08/22 09:27:13;;;;;;;;;;;;;;;;;;6342959;28;19928;-77
2023/08/22 09:30:20;;;;;;;;;;;;;;;;;;6343418;28;19928;-77
2023/08/22 09:33:21;;;;;;;;;;;;;;;;;;6341749;28;19935;-77
2023/08/22 09:36:22;;;;;;;;;;;;;;;;;;6341680;28;19935;-77
2023/08/22 09:39:23;;;;;;;;;;;;;;;;;;6346588;28;19920;-77
2023/08/22 09:42:25;;;;;;;;;;;;;;;;;;6349035;28;19926;-77
2023/08/22 09:45:26;;;;;;;;;;;;;;;;;;6348627;28;19973;-77
2023/08/22 09:48:30;;;;;;;;;;;;;;;;;;6347725;28;20216;-78
2023/08/22 09:51:31;;;;;;;;;;;;;;;;;;6349743;28;19928;-77
2023/08/22 09:54:33;;;;;;;;;;;;;;;;;;6348675;28;19972;-78
2023/08/22 09:57:34;;;;;;;;;;;;;;;;;;6347435;28;19939;-77
2023/08/22 10:00:35;;;;;;;;;;;;;;;;;;6349569;28;20147;-77
2023/08/22 10:03:36;;;;;;;;;;;;;;;;;;6349183;28;19936;-77
2023/08/22 10:06:37;;;;;;;;;;;;;;;;;;6346783;28;19926;-77
2023/08/22 10:09:39;;;;;;;;;;;;;;;;;;6350129;28;19923;-77
2023/08/22 10:12:40;;;;;;;;;;;;;;;;;;6348448;28;19924;-77
2023/08/22 10:15:41;;;;;;;;;;;;;;;;;;6346668;28;19943;-78
2023/08/22 10:18:42;;;;;;;;;;;;;;;;;;6344988;28;20078;-78
2023/08/22 10:21:44;;;;;;;;;;;;;;;;;;6353705;28;19927;-77
2023/08/22 10:24:45;;;;;;;;;;;;;;;;;;6352375;28;19937;-77
2023/08/22 10:27:46;;;;;;;;;;;;;;;;;;6354297;28;20200;-77
2023/08/22 10:30:48;;;;;;;;;;;;;;;;;;6355706;28;19966;-77
2023/08/22 10:33:49;;;;;;;;;;;;;;;;;;6356287;28;19920;-77
2023/08/22 10:36:50;;;;;;;;;;;;;;;;;;6355701;27;20161;-77
2023/08/22 10:39:52;;;;;;;;;;;;;;;;;;6356333;28;19927;-77
2023/08/22 10:42:53;;;;;;;;;;;;;;;;;;6354797;28;20209;-78
2023/08/22 10:45:54;;;;;;;;;;;;;;;;;;6356677;28;19928;-77
2023/08/22 10:48:56;;;;;;;;;;;;;;;;;;6353511;28;20200;-78
2023/08/22 10:51:57;;;;;;;;;;;;;;;;;;6357445;28;19932;-77
2023/08/22 10:54:58;;;;;;;;;;;;;;;;;;6350780;28;19942;-77
2023/08/22 10:57:59;;;;;;;;;;;;;;;;;;6344390;27;20124;-77
2023/08/22 11:01:01;;;;;;;;;;;;;;;;;;6345446;28;19928;-78
2023/08/22 11:04:03;;;;;;;;;;;;;;;;;;6343037;28;19927;-77
2023/08/22 11:07:04;;;;;;;;;;;;;;;;;;6345495;28;19920;-77
2023/08/22 11:10:05;;;;;;;;;;;;;;;;;;6348288;28;20131;-77
2023/08/22 11:13:06;;;;;;;;;;;;;;;;;;6347006;28;19928;-77
2023/08/22 11:16:07;;;;;;;;;;;;;;;;;;6343384;28;19923;-77
2023/08/22 11:19:08;;;;;;;;;;;;;;;;;;6344675;28;19919;-77
2023/08/22 11:22:10;;;;;;;;;;;;;;;;;;6345976;28;20082;-77
2023/08/22 11:25:11;;;;;;;;;;;;;;;;;;6346204;28;19931;-77
2023/08/22 11:28:12;;;;;;;;;;;;;;;;;;6346385;28;20151;-77
2023/08/22 11:31:13;;;;;;;;;;;;;;;;;;6345604;28;19928;-77
2023/08/22 11:34:15;;;;;;;;;;;;;;;;;;6347144;28;20185;-78
2023/08/22 11:37:16;;;;;;;;;;;;;;;;;;6345115;28;20231;-76
2023/08/22 11:40:17;;;;;;;;;;;;;;;;;;6345139;27;19939;-77
2023/08/22 11:43:18;;;;;;;;;;;;;;;;;;6343206;28;20004;-77
2023/08/22 11:46:20;;;;;;;;;;;;;;;;;;6345079;28;19958;-79
2023/08/22 11:49:21;;;;;;;;;;;;;;;;;;6347772;28;19932;-77
2023/08/22 11:52:22;;;;;;;;;;;;;;;;;;6342397;27;20116;-77
2023/08/22 11:55:25;;;;;;;;;;;;;;;;;;6345424;28;20228;-77
2023/08/22 11:58:26;;;;;;;;;;;;;;;;;;6343290;28;19920;-77
2023/08/22 12:01:27;;;;;;;;;;;;;;;;;;6344338;28;19932;-78
2023/08/22 12:04:28;;;;;;;;;;;;;;;;;;6344300;28;19936;-78
2023/08/22 12:07:30;;;;;;;;;;;;;;;;;;6343360;28;19935;-78
2023/08/22 12:10:31;;;;;;;;;;;;;;;;;;6348033;28;19946;-78
2023/08/22 12:13:32;;;;;;;;;;;;;;;;;;6342671;28;19999;-78
2023/08/22 12:16:33;;;;;;;;;;;;;;;;;;6344833;28;19953;-79
2023/08/22 12:19:34;;;;;;;;;;;;;;;;;;6343407;28;20248;-77
2023/08/22 12:22:38;;;;;;;;;;;;;;;;;;6343432;28;22765;-77
2023/08/22 12:25:39;;;;;;;;;;;;;;;;;;6349070;28;19950;-77
2023/08/22 12:28:40;;;;;;;;;;;;;;;;;;6343078;28;19931;-77
2023/08/22 12:31:41;;;;;;;;;;;;;;;;;;6345483;28;19935;-76
2023/08/22 12:34:42;;;;;;;;;;;;;;;;;;6342946;28;20220;-78
2023/08/22 12:37:44;;;;;;;;;;;;;;;;;;6341721;28;19928;-79
2023/08/22 12:40:45;;;;;;;;;;;;;;;;;;6342096;28;19926;-78
2023/08/22 12:43:46;;;;;;;;;;;;;;;;;;6345123;28;19932;-78
2023/08/22 12:46:47;;;;;;;;;;;;;;;;;;6341926;28;19924;-79
2023/08/22 12:49:49;;;;;;;;;;;;;;;;;;6345002;28;20169;-78
2023/08/22 12:52:50;;;;;;;;;;;;;;;;;;6343490;28;20117;-78
2023/08/22 12:55:51;;;;;;;;;;;;;;;;;;6345341;28;19927;-78
2023/08/22 12:58:52;;;;;;;;;;;;;;;;;;6343313;28;19939;-79
2023/08/22 13:01:54;;;;;;;;;;;;;;;;;;6344788;28;19923;-79
2023/08/22 13:04:55;;;;;;;;;;;;;;;;;;6342326;28;19951;-78
2023/08/22 13:07:56;;;;;;;;;;;;;;;;;;6346035;28;20563;-78
2023/08/22 13:10:57;;;;;;;;;;;;;;;;;;6344481;28;19924;-78
2023/08/22 13:13:59;;;;;;;;;;;;;;;;;;6350865;27;19935;-79
2023/08/22 13:17:00;;;;;;;;;;;;;;;;;;6348436;28;19920;-78
2023/08/22 13:20:02;;;;;;;;;;;;;;;;;;6347872;28;19935;-78
2023/08/22 13:23:03;;;;;;;;;;;;;;;;;;6350703;28;19966;-78
2023/08/22 13:26:05;;;;;;;;;;;;;;;;;;6347757;28;19928;-79
2023/08/22 13:29:06;;;;;;;;;;;;;;;;;;6347668;28;19991;-77
2023/08/22 13:32:07;;;;;;;;;;;;;;;;;;6351573;28;19928;-77
2023/08/22 13:35:13;;;;;;;;;;;;;;;;;;6347403;28;20032;-79
2023/08/22 13:38:14;;;;;;;;;;;;;;;;;;6347474;28;19928;-78
2023/08/22 13:41:15;;;;;;;;;;;;;;;;;;6346608;28;19932;-79
2023/08/22 13:44:16;;;;;;;;;;;;;;;;;;6347337;28;19927;-78
2023/08/22 13:47:17;;;;;;;;;;;;;;;;;;6347466;27;19943;-78
2023/08/22 13:50:19;;;;;;;;;;;;;;;;;;6349377;28;19931;-78
2023/08/22 13:53:20;;;;;;;;;;;;;;;;;;6348719;28;19919;-78
2023/08/22 13:56:22;;;;;;;;;;;;;;;;;;6345693;28;19987;-79
2023/08/22 13:59:24;;;;;;;;;;;;;;;;;;6344954;28;20057;-79
2023/08/22 14:02:25;;;;;;;;;;;;;;;;;;6346553;28;20251;-77
2023/08/22 14:05:26;;;;;;;;;;;;;;;;;;6348589;28;19927;-77
2023/08/22 14:08:27;;;;;;;;;;;;;;;;;;6348120;28;20219;-79
2023/08/22 14:11:29;;;;;;;;;;;;;;;;;;6347678;28;19928;-78
2023/08/22 14:14:30;;;;;;;;;;;;;;;;;;6343935;28;19935;-79
2023/08/22 14:17:31;;;;;;;;;;;;;;;;;;6348658;28;20146;-79
2023/08/22 14:20:32;;;;;;;;;;;;;;;;;;6349237;27;19939;-79
2023/08/22 14:23:34;;;;;;;;;;;;;;;;;;6347877;28;19934;-78
2023/08/22 14:26:36;;;;;;;;;;;;;;;;;;6347009;27;19934;-78
2023/08/22 14:29:37;;;;;;;;;;;;;;;;;;6345508;28;19928;-79
2023/08/22 14:32:38;;;;;;;;;;;;;;;;;;6348320;28;20206;-78
2023/08/22 14:35:40;;;;;;;;;;;;;;;;;;6346950;28;19931;-79
2023/08/22 14:38:41;;;;;;;;;;;;;;;;;;6344820;28;20216;-79
2023/08/22 14:41:42;;;;;;;;;;;;;;;;;;6347375;28;20232;-78
2023/08/22 14:44:43;;;;;;;;;;;;;;;;;;6344096;28;19973;-79
2023/08/22 14:47:45;;;;;;;;;;;;;;;;;;6342528;28;19920;-79
2023/08/22 14:50:46;;;;;;;;;;;;;;;;;;6348429;28;20788;-79
2023/08/22 14:53:47;;;;;;;;;;;;;;;;;;6345514;28;19934;-78
2023/08/22 14:56:48;;;;;;;;;;;;;;;;;;6344738;28;19931;-77
2023/08/22 14:59:49;;;;;;;;;;;;;;;;;;6345642;28;20119;-80
2023/08/22 15:02:51;;;;;;;;;;;;;;;;;;6345900;28;19920;-79
2023/08/22 15:05:52;;;;;;;;;;;;;;;;;;6345460;28;19962;-78
2023/08/22 15:08:53;;;;;;;;;;;;;;;;;;6347933;27;19920;-77
2023/08/22 15:11:54;;;;;;;;;;;;;;;;;;6345230;28;19927;-78
2023/08/22 15:14:56;;;;;;;;;;;;;;;;;;6346303;28;19933;-79
2023/08/22 15:17:57;;;;;;;;;;;;;;;;;;6345918;28;20138;-78
2023/08/22 15:20:59;;;;;;;;;;;;;;;;;;6344789;27;19931;-78
2023/08/22 15:24:01;;;;;;;;;;;;;;;;;;6345669;28;20207;-77
2023/08/22 15:27:02;;;;;;;;;;;;;;;;;;6345466;28;19965;-77
2023/08/22 15:30:04;;;;;;;;;;;;;;;;;;6346134;28;19994;-79
2023/08/22 15:33:05;;;;;;;;;;;;;;;;;;6345490;28;19994;-79
2023/08/22 15:36:06;;;;;;;;;;;;;;;;;;6344733;28;19982;-79
2023/08/22 15:39:08;;;;;;;;;;;;;;;;;;6344622;28;20019;-78
2023/08/22 15:42:09;;;;;;;;;;;;;;;;;;6342794;28;20093;-78
2023/08/22 15:45:11;;;;;;;;;;;;;;;;;;6346924;28;20584;-78
2023/08/22 15:48:12;;;;;;;;;;;;;;;;;;6344463;28;20204;-78
2023/08/22 15:51:13;;;;;;;;;;;;;;;;;;6347315;28;19928;-78
2023/08/22 15:54:14;;;;;;;;;;;;;;;;;;6345273;28;19934;-78
2023/08/22 15:57:16;;;;;;;;;;;;;;;;;;6343722;28;20124;-77
2023/08/22 16:00:17;;;;;;;;;;;;;;;;;;6344108;28;20130;-78
2023/08/22 16:03:18;;;;;;;;;;;;;;;;;;6342496;28;20715;-77
2023/08/22 16:06:20;;;;;;;;;;;;;;;;;;6342792;28;19919;-77
2023/08/22 16:09:21;;;;;;;;;;;;;;;;;;6346642;28;19928;-77
2023/08/22 16:12:22;;;;;;;;;;;;;;;;;;6345314;28;19920;-77
2023/08/22 16:15:23;;;;;;;;;;;;;;;;;;6344494;28;19927;-78
2023/08/22 16:18:25;;;;;;;;;;;;;;;;;;6340928;27;19957;-78
2023/08/22 16:21:26;;;;;;;;;;;;;;;;;;6342095;28;20159;-78
2023/08/22 16:24:27;;;;;;;;;;;;;;;;;;6344448;28;20100;-78
2023/08/22 16:27:28;;;;;;;;;;;;;;;;;;6343481;28;19939;-78
2023/08/22 16:30:30;;;;;;;;;;;;;;;;;;6345558;28;19926;-78
2023/08/22 16:33:31;;;;;;;;;;;;;;;;;;6343451;28;19928;-77
2023/08/22 16:36:33;;;;;;;;;;;;;;;;;;6343541;28;19935;-78
2023/08/22 16:39:34;;;;;;;;;;;;;;;;;;6342463;28;19934;-77
2023/08/22 16:42:35;;;;;;;;;;;;;;;;;;6343552;28;19920;-78
2023/08/22 16:45:36;;;;;;;;;;;;;;;;;;6346126;28;20017;-78
2023/08/22 16:48:38;;;;;;;;;;;;;;;;;;6351319;28;19934;-76
2023/08/22 16:51:39;;;;;;;;;;;;;;;;;;6350906;28;19930;-76
2023/08/22 16:54:40;;;;;;;;;;;;;;;;;;6350826;28;20139;-76
2023/08/22 16:57:42;;;;;;;;;;;;;;;;;;6349111;27;19932;-78
2023/08/22 17:00:43;;;;;;;;;;;;;;;;;;6347535;28;20144;-77
2023/08/22 17:03:44;;;;;;;;;;;;;;;;;;6346905;28;19920;-78
2023/08/22 17:06:46;;;;;;;;;;;;;;;;;;6349483;28;19932;-77
2023/08/22 17:09:47;;;;;;;;;;;;;;;;;;6348365;28;20201;-77
2023/08/22 17:12:51;;;;;;;;;;;;;;;;;;6348535;28;19928;-77
2023/08/22 17:15:52;;;;;;;;;;;;;;;;;;6349274;28;19931;-78
2023/08/22 17:18:53;;;;;;;;;;;;;;;;;;6347847;28;20224;-78
2023/08/22 17:21:54;;;;;;;;;;;;;;;;;;6348886;28;19927;-76
2023/08/22 17:24:55;;;;;;;;;;;;;;;;;;6351592;28;20213;-78
2023/08/22 17:27:58;;;;;;;;;;;;;;;;;;6347942;28;20105;-78
2023/08/22 17:30:59;;;;;;;;;;;;;;;;;;6348701;28;20135;-77
2023/08/22 17:34:01;;;;;;;;;;;;;;;;;;6344736;28;19928;-79
2023/08/22 17:37:02;;;;;;;;;;;;;;;;;;6346598;27;20271;-78
2023/08/22 17:40:04;;;;;;;;;;;;;;;;;;6346774;28;20231;-77
2023/08/22 17:43:05;;;;;;;;;;;;;;;;;;6346482;27;19923;-76
2023/08/22 17:46:06;;;;;;;;;;;;;;;;;;6347740;27;19928;-78
2023/08/22 17:49:08;;;;;;;;;;;;;;;;;;6349236;28;19928;-78
2023/08/22 17:52:09;;;;;;;;;;;;;;;;;;6346016;28;19938;-78
2023/08/22 17:55:10;;;;;;;;;;;;;;;;;;6347702;28;20212;-78
2023/08/22 17:58:11;;;;;;;;;;;;;;;;;;6341950;28;19928;-78
2023/08/22 18:01:12;;;;;;;;;;;;;;;;;;6349598;28;20001;-78
2023/08/22 18:04:14;;;;;;;;;;;;;;;;;;6346900;28;19932;-77
2023/08/22 18:07:15;;;;;;;;;;;;;;;;;;6347726;28;19920;-77
2023/08/22 18:10:17;;;;;;;;;;;;;;;;;;6350468;28;19928;-76
2023/08/22 18:13:18;;;;;;;;;;;;;;;;;;6348187;28;20093;-76
2023/08/22 18:16:19;;;;;;;;;;;;;;;;;;6345655;28;19934;-78
2023/08/22 18:19:20;;;;;;;;;;;;;;;;;;6344838;28;20098;-78
2023/08/22 18:22:22;;;;;;;;;;;;;;;;;;6348335;28;19991;-78
2023/08/22 18:25:23;;;;;;;;;;;;;;;;;;6348588;28;20124;-79
2023/08/22 18:28:24;;;;;;;;;;;;;;;;;;6347468;28;19934;-79
2023/08/22 18:31:25;;;;;;;;;;;;;;;;;;6349516;28;19920;-78
2023/08/22 18:34:28;;;;;;;;;;;;;;;;;;6346907;28;19928;-78
2023/08/22 18:37:30;;;;;;;;;;;;;;;;;;6343821;28;19932;-77
2023/08/22 18:40:31;;;;;;;;;;;;;;;;;;6345972;28;20097;-79
2023/08/22 18:43:32;;;;;;;;;;;;;;;;;;6348321;28;20215;-76
2023/08/22 18:46:33;;;;;;;;;;;;;;;;;;6345882;27;19928;-78
2023/08/22 18:49:34;;;;;;;;;;;;;;;;;;6349781;28;19936;-78
2023/08/22 18:52:36;;;;;;;;;;;;;;;;;;6344722;28;20223;-79
2023/08/22 18:55:37;;;;;;;;;;;;;;;;;;6345669;28;19927;-79
2023/08/22 18:58:39;;;;;;;;;;;;;;;;;;6344786;28;19928;-79
2023/08/22 19:01:44;;;;;;;;;;;;;;;;;;6344021;28;19971;-78
2023/08/22 19:04:49;;;;;;;;;;;;;;;;;;6344232;28;19924;-78
2023/08/22 19:07:51;;;;;;;;;;;;;;;;;;6346276;28;19927;-77
2023/08/22 19:10:52;;;;;;;;;;;;;;;;;;6349344;28;19926;-78
2023/08/22 19:13:54;;;;;;;;;;;;;;;;;;6345713;28;19932;-77
2023/08/22 19:16:55;;;;;;;;;;;;;;;;;;6345465;28;19928;-78
2023/08/22 19:19:56;;;;;;;;;;;;;;;;;;6345449;28;19947;-78
2023/08/22 19:22:57;;;;;;;;;;;;;;;;;;6347240;28;20215;-77
2023/08/22 19:25:59;;;;;;;;;;;;;;;;;;6345338;28;19927;-78
2023/08/22 19:29:00;;;;;;;;;;;;;;;;;;6344191;28;19932;-78
2023/08/22 19:32:01;;;;;;;;;;;;;;;;;;6346134;28;19927;-77
2023/08/22 19:35:02;;;;;;;;;;;;;;;;;;6342988;28;19927;-78
2023/08/22 19:38:04;;;;;;;;;;;;;;;;;;6344969;28;19934;-77
2023/08/22 19:41:05;;;;;;;;;;;;;;;;;;6342462;28;19928;-78
2023/08/22 19:44:06;;;;;;;;;;;;;;;;;;6343590;27;20208;-78
2023/08/22 19:47:07;;;;;;;;;;;;;;;;;;6346443;28;19927;-78
2023/08/22 19:50:09;;;;;;;;;;;;;;;;;;6346392;28;19951;-79
2023/08/22 19:53:10;;;;;;;;;;;;;;;;;;6344951;28;19931;-79
2023/08/22 19:56:11;;;;;;;;;;;;;;;;;;6344407;28;19928;-79
2023/08/22 19:59:12;;;;;;;;;;;;;;;;;;6344204;28;20102;-78
2023/08/22 20:02:14;;;;;;;;;;;;;;;;;;6344885;28;19935;-78
2023/08/22 20:05:15;;;;;;;;;;;;;;;;;;6346580;28;19928;-78
2023/08/22 20:08:16;;;;;;;;;;;;;;;;;;6344485;28;19991;-78
2023/08/22 20:11:17;;;;;;;;;;;;;;;;;;6345413;28;19928;-77
2023/08/22 20:14:19;;;;;;;;;;;;;;;;;;6342811;28;19920;-78
2023/08/22 20:17:20;;;;;;;;;;;;;;;;;;6344005;28;19939;-78
2023/08/22 20:20:21;;;;;;;;;;;;;;;;;;6344295;28;20139;-79
2023/08/22 20:23:22;;;;;;;;;;;;;;;;;;6345515;28;20247;-79
2023/08/22 20:26:24;;;;;;;;;;;;;;;;;;6343955;28;19927;-79
2023/08/22 20:29:25;;;;;;;;;;;;;;;;;;6341069;28;20208;-78
2023/08/22 20:32:26;;;;;;;;;;;;;;;;;;6343983;28;19961;-78
2023/08/22 20:35:27;;;;;;;;;;;;;;;;;;6344044;28;19981;-78
2023/08/22 20:38:28;;;;;;;;;;;;;;;;;;6343272;28;19935;-78